sensor_id;sensor_type;location;lat;lon;timestamp;P1;durP1;ratioP1;P2;durP2;ratioP2
75914;SDS011;64593;51.050;13.780;2022-12-04T07:00:11;54.08;;;24.38;;
75914;SDS011;64593;51.050;13.780;2022-12-04T07:05:13;71.68;;;26.92;;
75914;SDS011;64593;51.050;13.780;2022-12-04T07:10:15;62.15;;;25.85;;
75914;SDS011;64593;51.050;13.780;2022-12-04T07:15:17;69.85;;;26.42;;
75914;SDS011;64593;51.050;13.780;2022-12-04T07:20:19;79.68;;;30.02;;
75914;SDS011;64593;51.050;13.780;2022-12-04T07:25:21;15.40;;;7.00;;
75914;SDS011;64593;51.050;13.780;2022-12-04T07:30:23;78.97;;;28.48;;
75914;SDS011;64593;51.050;13.780;2022-12-04T07:35:25;78.30;;;26.67;;
75914;SDS011;64593;51.050;13.780;2022-12-04T07:40:26;74.10;;;24.98;;
75914;SDS011;64593;51.050;13.780;2022-12-04T07:45:28;71.72;;;28.10;;
75914;SDS011;64593;51.050;13.780;2022-12-04T07:50:30;68.35;;;26.80;;
75914;SDS011;64593;51.050;13.780;2022-12-04T07:55:32;80.35;;;31.73;;
75914;SDS011;64593;51.050;13.780;2022-12-04T08:00:34;81.45;;;29.15;;
75914;SDS011;64593;51.050;13.780;2022-12-04T08:05:36;75.75;;;28.50;;
75914;SDS011;64593;51.050;13.780;2022-12-04T08:10:40;63.30;;;25.17;;
75914;SDS011;64593;51.050;13.780;2022-12-04T08:15:42;48.15;;;20.58;;
75914;SDS011;64593;51.050;13.780;2022-12-04T08:22:00;58.20;;;22.70;;
75914;SDS011;64593;51.050;13.780;2022-12-04T08:27:01;71.10;;;32.80;;
75914;SDS011;64593;51.050;13.780;2022-12-04T08:32:03;58.00;;;26.17;;
75914;SDS011;64593;51.050;13.780;2022-12-04T08:37:05;65.18;;;23.25;;
75914;SDS011;64593;51.050;13.780;2022-12-04T08:42:07;55.83;;;23.20;;
75914;SDS011;64593;51.050;13.780;2022-12-04T08:47:08;46.60;;;20.38;;
75914;SDS011;64593;51.050;13.780;2022-12-04T08:52:10;71.20;;;29.25;;
75914;SDS011;64593;51.050;13.780;2022-12-04T08:57:13;70.85;;;26.40;;
75914;SDS011;64593;51.050;13.780;2022-12-04T09:02:15;53.17;;;25.95;;
75914;SDS011;64593;51.050;13.780;2022-12-04T09:07:17;30.98;;;12.90;;
75914;SDS011;64593;51.050;13.780;2022-12-04T09:12:22;55.90;;;22.40;;
75914;SDS011;64593;51.050;13.780;2022-12-04T09:17:23;56.65;;;23.80;;
75914;SDS011;64593;51.050;13.780;2022-12-04T09:22:25;68.32;;;27.15;;
75914;SDS011;64593;51.050;13.780;2022-12-04T09:27:37;59.67;;;26.00;;
75914;SDS011;64593;51.050;13.780;2022-12-04T09:33:00;59.50;;;26.88;;
75914;SDS011;64593;51.050;13.780;2022-12-04T09:38:20;55.47;;;23.17;;
75914;SDS011;64593;51.050;13.780;2022-12-04T09:48:31;34.53;;;18.88;;
75914;SDS011;64593;51.050;13.780;2022-12-04T09:53:45;23.25;;;9.65;;
75914;SDS011;64593;51.050;13.780;2022-12-04T09:59:05;23.33;;;12.32;;
75914;SDS011;64593;51.050;13.780;2022-12-04T10:04:13;23.63;;;13.30;;
75914;SDS011;64593;51.050;13.780;2022-12-04T10:09:23;34.10;;;16.45;;
75914;SDS011;64593;51.050;13.780;2022-12-04T10:25:21;34.50;;;17.17;;
75914;SDS011;64593;51.050;13.780;2022-12-04T10:30:25;47.88;;;30.13;;
75914;SDS011;64593;51.050;13.780;2022-12-04T10:35:30;25.38;;;13.57;;
75914;SDS011;64593;51.050;13.780;2022-12-04T10:45:55;32.17;;;15.88;;
75914;SDS011;64593;51.050;13.780;2022-12-04T10:50:57;28.00;;;14.23;;
75914;SDS011;64593;51.050;13.780;2022-12-04T10:56:09;31.90;;;15.95;;
75914;SDS011;64593;51.050;13.780;2022-12-04T11:01:14;25.50;;;11.90;;
75914;SDS011;64593;51.050;13.780;2022-12-04T11:06:22;18.77;;;9.88;;
75914;SDS011;64593;51.050;13.780;2022-12-04T11:11:29;24.05;;;12.73;;
75914;SDS011;64593;51.050;13.780;2022-12-04T11:16:40;31.13;;;14.30;;
75914;SDS011;64593;51.050;13.780;2022-12-04T11:22:10;24.10;;;11.48;;
75914;SDS011;64593;51.050;13.780;2022-12-04T11:27:15;32.90;;;19.38;;
75914;SDS011;64593;51.050;13.780;2022-12-04T11:32:25;39.45;;;16.50;;
75914;SDS011;64593;51.050;13.780;2022-12-04T11:37:32;36.30;;;18.25;;
75914;SDS011;64593;51.050;13.780;2022-12-04T11:42:35;21.27;;;10.55;;
75914;SDS011;64593;51.050;13.780;2022-12-04T11:47:36;34.25;;;16.17;;
75914;SDS011;64593;51.050;13.780;2022-12-04T11:52:55;39.85;;;20.60;;
75914;SDS011;64593;51.050;13.780;2022-12-04T12:03:41;29.38;;;12.77;;
75914;SDS011;64593;51.050;13.780;2022-12-04T12:30:18;65.45;;;27.17;;
75914;SDS011;64593;51.050;13.780;2022-12-04T12:40:46;51.72;;;21.77;;
75914;SDS011;64593;51.050;13.780;2022-12-04T12:45:56;51.25;;;22.73;;
75914;SDS011;64593;51.050;13.780;2022-12-04T12:56:40;52.38;;;19.67;;
75914;SDS011;64593;51.050;13.780;2022-12-04T13:01:52;66.93;;;29.08;;
75914;SDS011;64593;51.050;13.780;2022-12-04T13:07:25;59.92;;;26.40;;
75914;SDS011;64593;51.050;13.780;2022-12-04T13:12:42;68.30;;;30.27;;
75914;SDS011;64593;51.050;13.780;2022-12-04T13:18:08;69.30;;;28.20;;
75914;SDS011;64593;51.050;13.780;2022-12-04T13:45:23;32.83;;;16.90;;
75914;SDS011;64593;51.050;13.780;2022-12-04T13:50:30;24.67;;;13.70;;
75914;SDS011;64593;51.050;13.780;2022-12-04T13:55:37;21.33;;;12.63;;
75914;SDS011;64593;51.050;13.780;2022-12-04T14:00:42;57.45;;;25.77;;
75914;SDS011;64593;51.050;13.780;2022-12-04T14:05:46;78.07;;;33.97;;
75914;SDS011;64593;51.050;13.780;2022-12-04T14:10:58;56.55;;;22.15;;
75914;SDS011;64593;51.050;13.780;2022-12-04T14:16:24;70.00;;;29.55;;
75914;SDS011;64593;51.050;13.780;2022-12-04T14:21:39;71.53;;;29.25;;
75914;SDS011;64593;51.050;13.780;2022-12-04T14:26:48;71.85;;;29.05;;
75914;SDS011;64593;51.050;13.780;2022-12-04T14:32:15;83.32;;;31.10;;
75914;SDS011;64593;51.050;13.780;2022-12-04T14:37:24;67.10;;;25.52;;
75914;SDS011;64593;51.050;13.780;2022-12-04T14:42:32;100.07;;;46.38;;
75914;SDS011;64593;51.050;13.780;2022-12-04T14:47:55;70.10;;;24.98;;
75914;SDS011;64593;51.050;13.780;2022-12-04T14:58:23;75.75;;;27.88;;
75914;SDS011;64593;51.050;13.780;2022-12-04T15:03:35;89.10;;;39.13;;
75914;SDS011;64593;51.050;13.780;2022-12-04T15:08:49;76.03;;;30.58;;
75914;SDS011;64593;51.050;13.780;2022-12-04T15:14:02;80.20;;;31.27;;
75914;SDS011;64593;51.050;13.780;2022-12-04T15:19:12;89.07;;;34.30;;
75914;SDS011;64593;51.050;13.780;2022-12-04T15:24:17;95.70;;;36.30;;
75914;SDS011;64593;51.050;13.780;2022-12-04T15:29:25;75.55;;;28.45;;
75914;SDS011;64593;51.050;13.780;2022-12-04T15:34:41;81.75;;;28.33;;
75914;SDS011;64593;51.050;13.780;2022-12-04T15:39:48;33.28;;;14.90;;
75914;SDS011;64593;51.050;13.780;2022-12-04T15:50:05;58.33;;;21.67;;
75914;SDS011;64593;51.050;13.780;2022-12-04T15:55:17;82.38;;;33.67;;
75914;SDS011;64593;51.050;13.780;2022-12-04T16:00:24;44.92;;;19.65;;
75914;SDS011;64593;51.050;13.780;2022-12-04T16:05:33;59.05;;;25.33;;
75914;SDS011;64593;51.050;13.780;2022-12-04T16:10:36;62.35;;;24.00;;
75914;SDS011;64593;51.050;13.780;2022-12-04T16:15:39;87.40;;;36.10;;
75914;SDS011;64593;51.050;13.780;2022-12-04T16:20:41;117.90;;;53.78;;
75914;SDS011;64593;51.050;13.780;2022-12-04T16:25:43;81.80;;;29.17;;
75914;SDS011;64593;51.050;13.780;2022-12-04T16:30:53;84.80;;;31.55;;
75914;SDS011;64593;51.050;13.780;2022-12-04T16:35:58;52.75;;;21.38;;
75914;SDS011;64593;51.050;13.780;2022-12-04T16:41:00;82.70;;;36.33;;
75914;SDS011;64593;51.050;13.780;2022-12-04T16:46:01;78.22;;;30.23;;
75914;SDS011;64593;51.050;13.780;2022-12-04T16:51:07;61.33;;;28.65;;
75914;SDS011;64593;51.050;13.780;2022-12-04T16:56:15;72.22;;;30.27;;
75914;SDS011;64593;51.050;13.780;2022-12-04T17:01:19;87.30;;;37.97;;
75914;SDS011;64593;51.050;13.780;2022-12-04T17:06:22;64.93;;;31.50;;
75914;SDS011;64593;51.050;13.780;2022-12-04T17:11:26;88.40;;;40.97;;
75914;SDS011;64593;51.050;13.780;2022-12-04T17:16:28;92.05;;;32.92;;
75914;SDS011;64593;51.050;13.780;2022-12-04T17:21:31;72.53;;;29.50;;
75914;SDS011;64593;51.050;13.780;2022-12-04T17:26:51;82.50;;;30.48;;
75914;SDS011;64593;51.050;13.780;2022-12-04T17:31:54;53.75;;;22.75;;
75914;SDS011;64593;51.050;13.780;2022-12-04T17:37:14;88.57;;;32.35;;
75914;SDS011;64593;51.050;13.780;2022-12-04T17:42:17;87.65;;;32.63;;
75914;SDS011;64593;51.050;13.780;2022-12-04T17:47:19;82.82;;;31.00;;
75914;SDS011;64593;51.050;13.780;2022-12-04T17:52:21;89.18;;;33.88;;
75914;SDS011;64593;51.050;13.780;2022-12-04T17:57:23;75.30;;;28.95;;
75914;SDS011;64593;51.050;13.780;2022-12-04T18:02:24;66.43;;;27.48;;
75914;SDS011;64593;51.050;13.780;2022-12-04T18:07:26;63.10;;;24.83;;
75914;SDS011;64593;51.050;13.780;2022-12-04T18:12:28;57.50;;;24.30;;
75914;SDS011;64593;51.050;13.780;2022-12-04T18:17:30;49.15;;;22.85;;
75914;SDS011;64593;51.050;13.780;2022-12-04T18:22:32;45.75;;;23.85;;
75914;SDS011;64593;51.050;13.780;2022-12-04T18:27:34;47.25;;;20.02;;
75914;SDS011;64593;51.050;13.780;2022-12-04T18:32:40;61.50;;;26.23;;
75914;SDS011;64593;51.050;13.780;2022-12-04T18:37:43;59.72;;;23.73;;
75914;SDS011;64593;51.050;13.780;2022-12-04T18:42:45;60.72;;;26.48;;
75914;SDS011;64593;51.050;13.780;2022-12-04T18:47:48;38.83;;;19.42;;
75914;SDS011;64593;51.050;13.780;2022-12-04T18:52:50;22.65;;;14.70;;
75914;SDS011;64593;51.050;13.780;2022-12-04T18:57:59;14.52;;;7.78;;
75914;SDS011;64593;51.050;13.780;2022-12-04T19:03:01;18.38;;;10.45;;
75914;SDS011;64593;51.050;13.780;2022-12-04T19:08:07;22.02;;;13.75;;
75914;SDS011;64593;51.050;13.780;2022-12-04T19:13:09;15.10;;;7.55;;
75914;SDS011;64593;51.050;13.780;2022-12-04T19:18:11;11.55;;;7.10;;
75914;SDS011;64593;51.050;13.780;2022-12-04T19:23:17;21.27;;;11.50;;
75914;SDS011;64593;51.050;13.780;2022-12-04T19:28:18;13.00;;;7.57;;
75914;SDS011;64593;51.050;13.780;2022-12-04T19:33:21;17.77;;;11.30;;
75914;SDS011;64593;51.050;13.780;2022-12-04T19:38:24;19.63;;;11.30;;
75914;SDS011;64593;51.050;13.780;2022-12-04T19:43:26;15.70;;;8.82;;
75914;SDS011;64593;51.050;13.780;2022-12-04T19:48:28;11.68;;;7.13;;
75914;SDS011;64593;51.050;13.780;2022-12-04T19:53:30;15.48;;;8.95;;
75914;SDS011;64593;51.050;13.780;2022-12-04T19:58:57;23.42;;;12.40;;
75914;SDS011;64593;51.050;13.780;2022-12-04T20:04:01;7.82;;;4.32;;
75914;SDS011;64593;51.050;13.780;2022-12-04T20:09:08;12.55;;;6.35;;
75914;SDS011;64593;51.050;13.780;2022-12-04T20:14:12;13.20;;;7.30;;
75914;SDS011;64593;51.050;13.780;2022-12-04T20:19:15;17.35;;;9.27;;
75914;SDS011;64593;51.050;13.780;2022-12-04T20:24:20;15.80;;;8.90;;
75914;SDS011;64593;51.050;13.780;2022-12-04T20:29:22;11.63;;;6.55;;
75914;SDS011;64593;51.050;13.780;2022-12-04T20:34:24;15.85;;;10.82;;
75914;SDS011;64593;51.050;13.780;2022-12-04T20:39:25;13.85;;;8.63;;
75914;SDS011;64593;51.050;13.780;2022-12-04T20:44:31;19.25;;;11.65;;
75914;SDS011;64593;51.050;13.780;2022-12-04T20:49:33;15.50;;;8.23;;
75914;SDS011;64593;51.050;13.780;2022-12-04T20:54:38;15.88;;;6.68;;
75914;SDS011;64593;51.050;13.780;2022-12-04T21:04:47;13.82;;;7.68;;
75914;SDS011;64593;51.050;13.780;2022-12-04T21:09:51;17.00;;;9.45;;
75914;SDS011;64593;51.050;13.780;2022-12-04T21:14:55;12.10;;;7.18;;
75914;SDS011;64593;51.050;13.780;2022-12-04T21:20:16;17.65;;;8.85;;
75914;SDS011;64593;51.050;13.780;2022-12-04T21:25:22;14.23;;;8.18;;
75914;SDS011;64593;51.050;13.780;2022-12-04T21:30:25;15.38;;;10.55;;
75914;SDS011;64593;51.050;13.780;2022-12-04T21:35:27;11.05;;;6.07;;
75914;SDS011;64593;51.050;13.780;2022-12-04T21:40:29;20.67;;;13.88;;
75914;SDS011;64593;51.050;13.780;2022-12-04T21:45:31;13.95;;;7.95;;
75914;SDS011;64593;51.050;13.780;2022-12-04T21:50:33;19.42;;;14.20;;
75914;SDS011;64593;51.050;13.780;2022-12-04T21:55:35;14.57;;;9.68;;
75914;SDS011;64593;51.050;13.780;2022-12-04T22:00:36;16.10;;;10.63;;
75914;SDS011;64593;51.050;13.780;2022-12-04T22:05:41;13.30;;;9.05;;
75914;SDS011;64593;51.050;13.780;2022-12-04T22:10:44;14.10;;;9.00;;
75914;SDS011;64593;51.050;13.780;2022-12-04T22:15:47;16.40;;;11.43;;
75914;SDS011;64593;51.050;13.780;2022-12-04T22:20:49;17.30;;;11.85;;
75914;SDS011;64593;51.050;13.780;2022-12-04T22:25:50;18.67;;;11.48;;
75914;SDS011;64593;51.050;13.780;2022-12-04T22:30:52;14.13;;;9.50;;
75914;SDS011;64593;51.050;13.780;2022-12-04T22:35:54;10.98;;;6.82;;
75914;SDS011;64593;51.050;13.780;2022-12-04T22:41:01;17.65;;;12.05;;
75914;SDS011;64593;51.050;13.780;2022-12-04T22:46:05;11.32;;;6.18;;
75914;SDS011;64593;51.050;13.780;2022-12-04T22:51:12;15.40;;;8.73;;
75914;SDS011;64593;51.050;13.780;2022-12-04T22:56:16;13.32;;;7.82;;
